Time;durP1;ratioP1;P1;durP2;ratioP2;P2;SDS_P1;SDS_P2;PMS_P1;PMS_P2;Temp;Humidity;BMP_temperature;BMP_pressure;BME280_temperature;BME280_humidity;BME280_pressure;Samples;Min_cycle;Max_cycle;Signal;HPM_P1;HPM_P2
2023/08/30 00:01:12;;;;;;;;;;;15.80;75.50;;;;;;5093818;28;20325;-27
2023/08/30 00:03:37;;;;;;;;;;;15.90;75.60;;;;;;5094354;28;19944;-29
2023/08/30 00:06:04;;;;;;;;;;;15.80;75.50;;;;;;5094145;28;19920;-28
2023/08/30 00:08:30;;;;;;;;;;;15.90;75.60;;;;;;5093903;28;19908;-29
2023/08/30 00:10:58;;;;;;;;;;;15.80;75.60;;;;;;5093898;28;19908;-30
2023/08/30 00:13:24;;;;;;;;;;;15.80;75.60;;;;;;5093858;28;20357;-28
2023/08/30 00:15:50;;;;;;;;;;;15.80;75.60;;;;;;5093678;28;19958;-28
2023/08/30 00:18:15;;;;;;;;;;;15.80;75.60;;;;;;5093652;28;20379;-27
2023/08/30 00:20:41;;;;;;;;;;;15.80;75.70;;;;;;5093748;28;19973;-28
2023/08/30 00:23:06;;;;;;;;;;;15.80;75.60;;;;;;5093689;28;19915;-30
2023/08/30 00:25:32;;;;;;;;;;;15.90;75.70;;;;;;5093517;28;19908;-27
2023/08/30 00:27:57;;;;;;;;;;;15.90;75.70;;;;;;5093869;28;20284;-34
2023/08/30 00:30:23;;;;;;;;;;;15.90;75.70;;;;;;5093457;28;20005;-27
2023/08/30 00:32:48;;;;;;;;;;;15.90;75.70;;;;;;5093440;28;19908;-27
2023/08/30 00:35:14;;;;;;;;;;;15.90;75.60;;;;;;5093368;28;19908;-28
2023/08/30 00:37:39;;;;;;;;;;;15.90;75.60;;;;;;5093388;28;19915;-28
2023/08/30 00:40:06;;;;;;;;;;;15.90;75.60;;;;;;5093365;28;19998;-27
2023/08/30 00:42:31;;;;;;;;;;;15.80;75.50;;;;;;5093307;28;19909;-28
2023/08/30 00:44:57;;;;;;;;;;;15.80;75.60;;;;;;5092996;28;19914;-28
2023/08/30 00:47:23;;;;;;;;;;;15.80;75.60;;;;;;5093492;28;19914;-27
2023/08/30 00:49:49;;;;;;;;;;;15.80;75.70;;;;;;5092911;28;19915;-27
2023/08/30 00:52:14;;;;;;;;;;;15.70;75.80;;;;;;5093151;28;19909;-27
2023/08/30 00:54:40;;;;;;;;;;;15.60;75.80;;;;;;5092752;28;19912;-27
2023/08/30 00:57:06;;;;;;;;;;;15.60;75.90;;;;;;5093137;28;19946;-28
2023/08/30 00:59:32;;;;;;;;;;;15.60;76.00;;;;;;5092995;28;19908;-28
2023/08/30 01:01:59;;;;;;;;;;;15.60;76.10;;;;;;5092475;28;20308;-28
2023/08/30 01:04:24;;;;;;;;;;;15.50;76.10;;;;;;5092833;28;20245;-26
2023/08/30 01:06:50;;;;;;;;;;;15.40;76.20;;;;;;5092767;28;19969;-30
2023/08/30 01:09:16;;;;;;;;;;;15.40;76.30;;;;;;5092815;28;20006;-28
2023/08/30 01:11:53;;;;;;;;;;;15.40;76.30;;;;;;5091697;28;20155;-28
2023/08/30 01:14:21;;;;;;;;;;;15.30;76.30;;;;;;5092597;28;20380;-27
2023/08/30 01:16:47;;;;;;;;;;;15.30;76.30;;;;;;5092673;28;19957;-28
2023/08/30 01:19:13;;;;;;;;;;;15.20;76.30;;;;;;5092888;28;19999;-27
2023/08/30 01:21:56;;;;;;;;;;;15.20;76.50;;;;;;5092397;28;19915;-26
2023/08/30 01:24:28;;;;;;;;;;;15.20;76.50;;;;;;5093006;28;19916;-27
2023/08/30 01:27:03;;;;;;;;;;;15.20;76.60;;;;;;5092461;28;19912;-26
2023/08/30 01:29:30;;;;;;;;;;;15.10;76.60;;;;;;5092508;28;20283;-28
2023/08/30 01:31:55;;;;;;;;;;;15.10;76.70;;;;;;5092418;28;19908;-26
2023/08/30 01:34:21;;;;;;;;;;;15.10;76.70;;;;;;5092321;28;19919;-27
2023/08/30 01:36:47;;;;;;;;;;;15.00;76.70;;;;;;5092377;28;19908;-28
2023/08/30 01:39:14;;;;;;;;;;;15.00;76.70;;;;;;5092302;28;20355;-27
2023/08/30 01:41:39;;;;;;;;;;;15.00;76.80;;;;;;5092392;28;20260;-28
2023/08/30 01:44:05;;;;;;;;;;;14.90;76.80;;;;;;5092285;28;19958;-28
2023/08/30 01:46:33;;;;;;;;;;;14.90;76.80;;;;;;5092386;28;19922;-29
2023/08/30 01:48:59;;;;;;;;;;;14.90;76.90;;;;;;5092083;28;20007;-28
2023/08/30 01:51:25;;;;;;;;;;;14.80;77.60;;;;;;5091985;28;20356;-31
2023/08/30 01:53:51;;;;;;;;;;;14.80;77.00;;;;;;5092011;28;20003;-34
2023/08/30 01:56:17;;;;;;;;;;;14.80;77.10;;;;;;5092059;28;20271;-28
2023/08/30 01:58:42;;;;;;;;;;;14.80;77.10;;;;;;5092144;28;20007;-27
2023/08/30 02:01:08;;;;;;;;;;;14.70;77.00;;;;;;5091835;28;20002;-27
2023/08/30 02:03:33;;;;;;;;;;;14.80;77.10;;;;;;5091815;28;19919;-30
2023/08/30 02:06:14;;;;;;;;;;;14.70;77.00;;;;;;5091775;28;19934;-28
2023/08/30 02:08:48;;;;;;;;;;;14.80;77.00;;;;;;5092181;28;20378;-32
2023/08/30 02:11:16;;;;;;;;;;;14.80;76.90;;;;;;5092249;28;19908;-32
2023/08/30 02:13:43;;;;;;;;;;;14.80;76.90;;;;;;5091813;28;19923;-29
2023/08/30 02:16:09;;;;;;;;;;;14.90;77.00;;;;;;5091958;28;20301;-33
2023/08/30 02:18:35;;;;;;;;;;;14.90;76.90;;;;;;5091900;28;19908;-36
2023/08/30 02:21:01;;;;;;;;;;;14.90;76.90;;;;;;5091894;28;19915;-30
2023/08/30 02:23:26;;;;;;;;;;;14.90;76.90;;;;;;5093904;28;19908;-29
2023/08/30 02:25:54;;;;;;;;;;;15.00;76.90;;;;;;5096001;28;19912;-29
2023/08/30 02:28:19;;;;;;;;;;;15.00;76.90;;;;;;5096099;28;19912;-29
2023/08/30 02:30:45;;;;;;;;;;;15.00;76.90;;;;;;5095815;28;20330;-29
2023/08/30 02:33:10;;;;;;;;;;;15.00;76.80;;;;;;5095740;28;19912;-27
2023/08/30 02:35:35;;;;;;;;;;;15.00;76.90;;;;;;5095618;28;19908;-30
2023/08/30 02:38:04;;;;;;;;;;;15.10;76.80;;;;;;5095737;28;20023;-29
2023/08/30 02:40:30;;;;;;;;;;;15.10;76.90;;;;;;5095737;28;19908;-28
2023/08/30 02:42:55;;;;;;;;;;;15.10;76.90;;;;;;5095670;28;19939;-31
2023/08/30 02:45:21;;;;;;;;;;;15.10;76.90;;;;;;5095387;28;20299;-33
2023/08/30 02:47:47;;;;;;;;;;;15.10;76.80;;;;;;5095555;28;19962;-30
2023/08/30 02:50:13;;;;;;;;;;;15.20;76.90;;;;;;5093768;28;19908;-28
2023/08/30 02:52:38;;;;;;;;;;;15.20;76.80;;;;;;5095464;28;20053;-31
2023/08/30 02:55:04;;;;;;;;;;;15.20;76.70;;;;;;5095208;28;19912;-26
2023/08/30 02:57:30;;;;;;;;;;;15.30;76.70;;;;;;5095660;28;19908;-33
2023/08/30 02:59:55;;;;;;;;;;;15.30;76.50;;;;;;5094056;28;19908;-31
2023/08/30 03:02:21;;;;;;;;;;;15.30;76.50;;;;;;5095206;28;19908;-31
2023/08/30 03:04:46;;;;;;;;;;;15.40;76.40;;;;;;5095060;28;20002;-27
2023/08/30 03:07:12;;;;;;;;;;;15.40;76.30;;;;;;5095027;28;19928;-26
2023/08/30 03:09:38;;;;;;;;;;;15.40;76.30;;;;;;5094946;28;19908;-32
2023/08/30 03:12:04;;;;;;;;;;;15.40;76.30;;;;;;5095085;28;19908;-29
2023/08/30 03:14:29;;;;;;;;;;;15.50;76.40;;;;;;5094795;28;19912;-31
2023/08/30 03:16:55;;;;;;;;;;;15.50;76.30;;;;;;5094966;28;20368;-29
2023/08/30 03:19:20;;;;;;;;;;;15.50;76.30;;;;;;5093644;28;19915;-29
2023/08/30 03:21:46;;;;;;;;;;;15.50;76.40;;;;;;5094769;28;19908;-27
2023/08/30 03:24:13;;;;;;;;;;;15.50;76.30;;;;;;5094753;28;19920;-26
2023/08/30 03:26:40;;;;;;;;;;;15.50;76.30;;;;;;5094826;28;19908;-27
2023/08/30 03:29:06;;;;;;;;;;;15.50;76.30;;;;;;5094821;28;20006;-30
2023/08/30 03:31:31;;;;;;;;;;;15.50;76.30;;;;;;5093428;28;19951;-30
2023/08/30 03:33:57;;;;;;;;;;;15.50;76.30;;;;;;5093704;28;19912;-32
2023/08/30 03:36:22;;;;;;;;;;;15.50;76.30;;;;;;5094212;28;19973;-29
2023/08/30 03:38:48;;;;;;;;;;;15.50;76.30;;;;;;5094678;28;20003;-28
2023/08/30 03:41:13;;;;;;;;;;;15.40;76.40;;;;;;5094529;28;19909;-26
2023/08/30 03:43:39;;;;;;;;;;;15.40;76.30;;;;;;5094527;28;20353;-29
2023/08/30 03:46:04;;;;;;;;;;;15.40;76.30;;;;;;5094368;28;19954;-29
2023/08/30 03:48:30;;;;;;;;;;;15.30;76.50;;;;;;5094387;28;19941;-28
2023/08/30 03:50:56;;;;;;;;;;;15.30;76.60;;;;;;5094269;28;19958;-28
2023/08/30 03:53:22;;;;;;;;;;;15.20;76.70;;;;;;5094289;28;19923;-27
2023/08/30 03:55:48;;;;;;;;;;;15.20;76.80;;;;;;5093939;28;19974;-27
2023/08/30 03:58:13;;;;;;;;;;;15.10;76.80;;;;;;5094395;28;19908;-27
2023/08/30 04:00:39;;;;;;;;;;;15.10;76.90;;;;;;5094231;28;19908;-26
2023/08/30 04:03:09;;;;;;;;;;;15.00;76.90;;;;;;5094091;28;19931;-27
2023/08/30 04:05:35;;;;;;;;;;;15.00;77.00;;;;;;5093678;28;20390;-30
2023/08/30 04:08:03;;;;;;;;;;;14.90;77.10;;;;;;5094145;28;19908;-28
2023/08/30 04:10:37;;;;;;;;;;;14.80;77.10;;;;;;5093514;28;21296;-26
2023/08/30 04:13:03;;;;;;;;;;;14.80;77.20;;;;;;5093952;28;19912;-33
2023/08/30 04:15:29;;;;;;;;;;;14.70;77.30;;;;;;5093743;28;19908;-26
2023/08/30 04:17:54;;;;;;;;;;;14.70;77.30;;;;;;5093848;28;20015;-27
2023/08/30 04:20:19;;;;;;;;;;;14.60;77.40;;;;;;5092351;28;19908;-26
2023/08/30 04:22:45;;;;;;;;;;;14.60;77.50;;;;;;5093748;28;20120;-28
2023/08/30 04:25:10;;;;;;;;;;;14.50;77.50;;;;;;5093531;28;19908;-26
2023/08/30 04:27:36;;;;;;;;;;;14.50;77.60;;;;;;5093668;28;19909;-29
2023/08/30 04:30:02;;;;;;;;;;;14.40;77.60;;;;;;5093697;28;19912;-27
2023/08/30 04:32:27;;;;;;;;;;;14.40;77.70;;;;;;5093406;28;19956;-28
2023/08/30 04:34:53;;;;;;;;;;;14.40;77.70;;;;;;5093422;28;20003;-27
2023/08/30 04:37:18;;;;;;;;;;;14.40;77.80;;;;;;5093332;28;19908;-26
2023/08/30 04:39:46;;;;;;;;;;;14.30;77.70;;;;;;5093403;28;20027;-28
2023/08/30 04:42:12;;;;;;;;;;;14.30;77.80;;;;;;5093386;28;20342;-27
2023/08/30 04:44:37;;;;;;;;;;;14.30;77.80;;;;;;5091720;28;19951;-28
2023/08/30 04:47:03;;;;;;;;;;;14.20;77.90;;;;;;5093325;28;19908;-28
2023/08/30 04:49:29;;;;;;;;;;;14.20;77.90;;;;;;5092993;28;19908;-27
2023/08/30 04:51:54;;;;;;;;;;;14.10;77.90;;;;;;5092988;28;19910;-31
2023/08/30 04:54:20;;;;;;;;;;;14.10;78.00;;;;;;5092917;28;19973;-25
2023/08/30 04:56:45;;;;;;;;;;;14.10;78.00;;;;;;5092922;28;19914;-26
2023/08/30 04:59:11;;;;;;;;;;;14.10;78.10;;;;;;5093142;28;19908;-27
2023/08/30 05:01:38;;;;;;;;;;;14.00;78.10;;;;;;5093255;28;19914;-26
2023/08/30 05:04:05;;;;;;;;;;;14.00;78.20;;;;;;5092774;28;19908;-26
2023/08/30 05:06:31;;;;;;;;;;;14.00;78.20;;;;;;5092843;28;19924;-27
2023/08/30 05:08:58;;;;;;;;;;;14.00;78.30;;;;;;5092853;28;19972;-27
2023/08/30 05:11:23;;;;;;;;;;;13.90;78.30;;;;;;5092874;28;20372;-26
2023/08/30 05:13:49;;;;;;;;;;;13.90;78.40;;;;;;5092779;28;19923;-26
2023/08/30 05:16:14;;;;;;;;;;;13.90;78.40;;;;;;5092682;28;20028;-26
2023/08/30 05:18:40;;;;;;;;;;;13.90;78.50;;;;;;5091510;28;20085;-26
2023/08/30 05:21:05;;;;;;;;;;;13.90;78.50;;;;;;5092809;28;19935;-27
2023/08/30 05:23:31;;;;;;;;;;;13.80;78.50;;;;;;5093013;28;20012;-26
2023/08/30 05:25:57;;;;;;;;;;;13.90;78.70;;;;;;5092529;28;20375;-26
2023/08/30 05:28:22;;;;;;;;;;;13.80;78.60;;;;;;5092717;28;19912;-27
2023/08/30 05:30:48;;;;;;;;;;;13.80;78.60;;;;;;5092566;28;20348;-28
2023/08/30 05:33:13;;;;;;;;;;;13.90;78.60;;;;;;5092646;28;20219;-29
2023/08/30 05:35:39;;;;;;;;;;;13.90;78.60;;;;;;5092661;28;20014;-27
2023/08/30 05:38:04;;;;;;;;;;;13.90;78.50;;;;;;5092482;28;19916;-26
2023/08/30 05:40:29;;;;;;;;;;;14.00;78.50;;;;;;5092432;28;19919;-27
2023/08/30 05:42:55;;;;;;;;;;;14.00;78.40;;;;;;5092315;28;19919;-27
2023/08/30 05:45:21;;;;;;;;;;;14.10;78.40;;;;;;5092130;28;19912;-27
2023/08/30 05:47:46;;;;;;;;;;;14.10;78.30;;;;;;5092411;28;19920;-27
2023/08/30 05:50:12;;;;;;;;;;;14.20;78.30;;;;;;5091928;28;19939;-27
2023/08/30 05:52:41;;;;;;;;;;;14.30;78.20;;;;;;5092186;28;20237;-26
2023/08/30 05:55:07;;;;;;;;;;;14.30;78.10;;;;;;5092009;28;20025;-29
2023/08/30 05:57:33;;;;;;;;;;;14.40;78.00;;;;;;5091448;28;19912;-28
2023/08/30 05:59:59;;;;;;;;;;;14.40;78.00;;;;;;5091942;28;19912;-27
2023/08/30 06:02:24;;;;;;;;;;;14.50;78.00;;;;;;5092012;28;19912;-27
2023/08/30 06:04:50;;;;;;;;;;;14.50;77.90;;;;;;5092015;28;20017;-28
2023/08/30 06:07:15;;;;;;;;;;;14.60;77.80;;;;;;5091889;28;19927;-28
2023/08/30 06:09:41;;;;;;;;;;;14.70;77.80;;;;;;5090784;28;19958;-26
2023/08/30 06:12:07;;;;;;;;;;;14.70;77.70;;;;;;5092119;28;20328;-27
2023/08/30 06:14:32;;;;;;;;;;;14.80;77.60;;;;;;5091803;28;19916;-26
2023/08/30 06:16:58;;;;;;;;;;;14.90;77.50;;;;;;5091997;28;20431;-27
2023/08/30 06:19:23;;;;;;;;;;;15.00;77.40;;;;;;5090626;28;19965;-28
2023/08/30 06:21:49;;;;;;;;;;;15.10;77.30;;;;;;5091841;28;20343;-27
2023/08/30 06:24:14;;;;;;;;;;;15.20;77.20;;;;;;5090373;28;19912;-26
2023/08/30 06:26:40;;;;;;;;;;;15.20;77.10;;;;;;5091856;28;19912;-28
2023/08/30 06:29:05;;;;;;;;;;;15.30;77.10;;;;;;5091944;28;19919;-28
2023/08/30 06:31:32;;;;;;;;;;;15.30;76.90;;;;;;5091781;28;19912;-25
2023/08/30 06:33:57;;;;;;;;;;;15.40;76.90;;;;;;5091678;28;20433;-28
2023/08/30 06:36:23;;;;;;;;;;;15.40;76.90;;;;;;5091978;28;19948;-27
2023/08/30 06:38:49;;;;;;;;;;;15.40;76.90;;;;;;5091741;28;20284;-26
2023/08/30 06:41:14;;;;;;;;;;;15.50;76.90;;;;;;5091799;28;19981;-27
2023/08/30 06:43:39;;;;;;;;;;;15.50;76.90;;;;;;5091799;28;19922;-28
2023/08/30 06:46:05;;;;;;;;;;;15.50;76.80;;;;;;5091588;28;20265;-30
2023/08/30 06:48:30;;;;;;;;;;;15.60;76.80;;;;;;5091371;28;20000;-30
2023/08/30 06:50:59;;;;;;;;;;;15.60;76.70;;;;;;5091536;28;19912;-31
2023/08/30 06:53:27;;;;;;;;;;;15.70;76.70;;;;;;5091657;28;19993;-26
2023/08/30 06:55:59;;;;;;;;;;;15.70;76.70;;;;;;5091425;28;19916;-30
2023/08/30 06:58:25;;;;;;;;;;;15.80;76.60;;;;;;5091522;28;20345;-26
2023/08/30 07:00:50;;;;;;;;;;;15.80;76.60;;;;;;5091528;28;19912;-31
2023/08/30 07:03:16;;;;;;;;;;;15.90;76.60;;;;;;5091435;28;19916;-27
2023/08/30 07:05:43;;;;;;;;;;;15.90;76.50;;;;;;5091298;28;19923;-27
2023/08/30 07:08:08;;;;;;;;;;;15.90;76.50;;;;;;5091634;28;19943;-30
2023/08/30 07:10:34;;;;;;;;;;;16.00;76.50;;;;;;5095114;28;19934;-27
2023/08/30 07:13:00;;;;;;;;;;;16.00;76.40;;;;;;5095076;28;19916;-30
2023/08/30 07:15:25;;;;;;;;;;;16.00;76.30;;;;;;5095079;28;19991;-27
2023/08/30 07:17:51;;;;;;;;;;;16.00;76.30;;;;;;5095060;28;19919;-29
2023/08/30 07:20:16;;;;;;;;;;;16.10;76.40;;;;;;5094949;28;19966;-26
2023/08/30 07:22:42;;;;;;;;;;;16.10;76.40;;;;;;5094973;28;20277;-27
2023/08/30 07:25:09;;;;;;;;;;;16.10;76.60;;;;;;5095023;28;20300;-30
2023/08/30 07:27:35;;;;;;;;;;;16.00;76.60;;;;;;5095185;28;19912;-29
2023/08/30 07:30:01;;;;;;;;;;;16.00;76.70;;;;;;5094826;28;19969;-27
2023/08/30 07:32:27;;;;;;;;;;;16.00;77.00;;;;;;5094853;28;19919;-26
2023/08/30 07:34:52;;;;;;;;;;;15.90;77.10;;;;;;5094474;28;20298;-30
2023/08/30 07:37:19;;;;;;;;;;;15.90;77.50;;;;;;5094600;28;19930;-25
2023/08/30 07:39:44;;;;;;;;;;;15.80;77.60;;;;;;5094670;28;19912;-28
2023/08/30 07:42:10;;;;;;;;;;;15.70;77.80;;;;;;5094684;28;19919;-27
2023/08/30 07:44:35;;;;;;;;;;;15.70;78.00;;;;;;5094387;28;19961;-28
2023/08/30 07:47:01;;;;;;;;;;;15.60;78.10;;;;;;5094683;28;19964;-29
2023/08/30 07:49:26;;;;;;;;;;;15.60;78.30;;;;;;5094313;28;19912;-29
2023/08/30 07:51:52;;;;;;;;;;;15.50;78.80;;;;;;5094330;28;20400;-28
2023/08/30 07:54:17;;;;;;;;;;;15.40;79.00;;;;;;5094102;28;19923;-27
2023/08/30 07:56:43;;;;;;;;;;;15.40;79.10;;;;;;5094185;28;19923;-31
2023/08/30 07:59:09;;;;;;;;;;;15.30;79.30;;;;;;5094438;28;20386;-28
2023/08/30 08:01:34;;;;;;;;;;;15.30;79.50;;;;;;5094208;28;19912;-31
2023/08/30 08:04:00;;;;;;;;;;;15.20;79.50;;;;;;5094147;28;19919;-30
2023/08/30 08:06:25;;;;;;;;;;;15.20;79.80;;;;;;5093966;28;19955;-28
2023/08/30 08:08:51;;;;;;;;;;;15.20;80.00;;;;;;5094181;28;19912;-29
2023/08/30 08:11:16;;;;;;;;;;;15.20;80.20;;;;;;5094022;28;19944;-32
2023/08/30 08:13:42;;;;;;;;;;;15.10;80.20;;;;;;5093892;28;19927;-30
2023/08/30 08:16:08;;;;;;;;;;;15.10;80.40;;;;;;5093869;28;19961;-26
2023/08/30 08:18:33;;;;;;;;;;;15.10;80.40;;;;;;5093940;28;19923;-26
2023/08/30 08:20:59;;;;;;;;;;;15.10;80.50;;;;;;5093142;28;20014;-26
2023/08/30 08:23:24;;;;;;;;;;;15.10;80.70;;;;;;5093782;28;19916;-25
2023/08/30 08:25:56;;;;;;;;;;;15.10;80.70;;;;;;5093591;28;20474;-27
2023/08/30 08:28:21;;;;;;;;;;;15.10;80.70;;;;;;5093724;28;20310;-25
2023/08/30 08:30:50;;;;;;;;;;;15.10;80.80;;;;;;5093969;28;19912;-28
2023/08/30 08:33:19;;;;;;;;;;;15.00;80.90;;;;;;5093500;28;19920;-30
2023/08/30 08:35:45;;;;;;;;;;;15.00;80.90;;;;;;5092139;28;19920;-29
2023/08/30 08:38:11;;;;;;;;;;;15.00;80.90;;;;;;5093770;28;20280;-35
2023/08/30 08:40:38;;;;;;;;;;;15.10;81.10;;;;;;5092194;28;20365;-26
2023/08/30 08:43:04;;;;;;;;;;;15.10;80.90;;;;;;5093748;28;19912;-26
2023/08/30 08:45:30;;;;;;;;;;;15.10;81.10;;;;;;5093459;28;19912;-26
2023/08/30 08:47:56;;;;;;;;;;;15.20;81.50;;;;;;5093284;28;20045;-26
2023/08/30 08:50:22;;;;;;;;;;;15.20;81.40;;;;;;5092983;28;19959;-26
2023/08/30 08:52:48;;;;;;;;;;;15.20;81.30;;;;;;5093208;28;20015;-27
2023/08/30 08:55:13;;;;;;;;;;;15.20;81.30;;;;;;5092976;28;20300;-28
2023/08/30 08:57:39;;;;;;;;;;;15.20;81.30;;;;;;5093231;28;19918;-27
2023/08/30 09:00:06;;;;;;;;;;;15.20;81.30;;;;;;5093167;28;19954;-38
2023/08/30 09:02:31;;;;;;;;;;;15.20;81.50;;;;;;5093043;28;19912;-27
2023/08/30 09:04:58;;;;;;;;;;;15.20;81.80;;;;;;5092963;28;20011;-29
2023/08/30 09:07:25;;;;;;;;;;;15.20;81.90;;;;;;5093000;28;19916;-27
2023/08/30 09:09:52;;;;;;;;;;;15.20;81.90;;;;;;5092974;28;20014;-28
2023/08/30 09:12:17;;;;;;;;;;;15.20;81.90;;;;;;5092977;28;19916;-28
2023/08/30 09:14:53;;;;;;;;;;;15.20;82.00;;;;;;5092912;28;19972;-27
2023/08/30 09:17:18;;;;;;;;;;;15.20;82.20;;;;;;5092982;28;20007;-32
2023/08/30 09:19:44;;;;;;;;;;;15.20;82.10;;;;;;5092768;28;20390;-28
2023/08/30 09:22:10;;;;;;;;;;;15.20;82.00;;;;;;5092762;28;19935;-29
2023/08/30 09:24:39;;;;;;;;;;;15.20;82.20;;;;;;5092781;28;19982;-27
2023/08/30 09:27:05;;;;;;;;;;;15.20;82.60;;;;;;5092713;28;20371;-27
2023/08/30 09:29:31;;;;;;;;;;;15.20;82.40;;;;;;5092653;28;19912;-27
2023/08/30 09:31:57;;;;;;;;;;;15.20;82.50;;;;;;5092576;28;19912;-29
2023/08/30 09:34:26;;;;;;;;;;;15.30;82.40;;;;;;5091299;28;20386;-27
2023/08/30 09:36:52;;;;;;;;;;;15.30;82.40;;;;;;5092609;28;20398;-27
2023/08/30 09:39:17;;;;;;;;;;;15.30;82.40;;;;;;5092610;28;19912;-27
2023/08/30 09:41:44;;;;;;;;;;;15.30;82.30;;;;;;5092533;28;19912;-27
2023/08/30 09:44:15;;;;;;;;;;;15.40;82.40;;;;;;5092412;28;19912;-28
2023/08/30 09:46:44;;;;;;;;;;;15.40;82.40;;;;;;5092768;28;20394;-26
2023/08/30 09:49:10;;;;;;;;;;;15.40;82.40;;;;;;5092539;28;19977;-29
2023/08/30 09:51:37;;;;;;;;;;;15.50;82.60;;;;;;5092304;28;19916;-30
2023/08/30 09:54:04;;;;;;;;;;;15.50;82.50;;;;;;5091983;28;19924;-28
2023/08/30 09:56:31;;;;;;;;;;;15.50;82.60;;;;;;5092041;28;19919;-28
2023/08/30 09:58:59;;;;;;;;;;;15.50;82.60;;;;;;5092038;28;19919;-25
2023/08/30 10:01:25;;;;;;;;;;;15.50;82.60;;;;;;5091901;28;19912;-26
2023/08/30 10:03:51;;;;;;;;;;;15.60;82.80;;;;;;5091862;28;19955;-26
2023/08/30 10:06:17;;;;;;;;;;;15.60;82.80;;;;;;5091806;28;19943;-27
2023/08/30 10:08:44;;;;;;;;;;;15.70;82.90;;;;;;5092219;28;20379;-29
2023/08/30 10:11:09;;;;;;;;;;;15.70;82.80;;;;;;5091857;28;19912;-28
2023/08/30 10:13:35;;;;;;;;;;;15.80;82.90;;;;;;5091969;28;19916;-25
2023/08/30 10:16:04;;;;;;;;;;;15.90;82.90;;;;;;5091813;28;20007;-29
2023/08/30 10:18:31;;;;;;;;;;;15.90;82.90;;;;;;5091893;28;19962;-26
2023/08/30 10:20:59;;;;;;;;;;;15.90;83.40;;;;;;5091799;28;19920;-27
2023/08/30 10:23:25;;;;;;;;;;;16.00;83.40;;;;;;5091980;28;19912;-26
2023/08/30 10:25:52;;;;;;;;;;;16.00;83.20;;;;;;5091799;28;19912;-28
2023/08/30 10:28:18;;;;;;;;;;;16.10;83.60;;;;;;5090554;28;19916;-28
2023/08/30 10:30:43;;;;;;;;;;;16.10;83.50;;;;;;5092170;28;20384;-27
2023/08/30 10:33:13;;;;;;;;;;;16.20;83.80;;;;;;5091969;28;19919;-25
2023/08/30 10:35:47;;;;;;;;;;;16.20;83.70;;;;;;5091718;28;20011;-26
2023/08/30 10:38:13;;;;;;;;;;;16.30;83.60;;;;;;5091943;28;19915;-28
2023/08/30 10:40:45;;;;;;;;;;;16.40;83.50;;;;;;5092052;28;20447;-28
2023/08/30 10:43:11;;;;;;;;;;;16.50;83.50;;;;;;5091017;28;20018;-28
2023/08/30 10:45:36;;;;;;;;;;;16.60;83.30;;;;;;5095888;28;20427;-30
2023/08/30 10:48:03;;;;;;;;;;;16.70;83.40;;;;;;5095868;28;20035;-31
2023/08/30 10:50:32;;;;;;;;;;;16.70;83.30;;;;;;5095383;28;19912;-28
2023/08/30 10:52:58;;;;;;;;;;;16.70;83.30;;;;;;5095611;28;20424;-28
2023/08/30 10:55:24;;;;;;;;;;;16.60;83.50;;;;;;5095476;28;19916;-28
2023/08/30 10:57:57;;;;;;;;;;;16.60;83.70;;;;;;5095531;28;19916;-28
2023/08/30 11:00:23;;;;;;;;;;;16.70;83.90;;;;;;5095356;28;20029;-29
2023/08/30 11:02:49;;;;;;;;;;;16.60;83.80;;;;;;5095652;28;20310;-27
2023/08/30 11:05:16;;;;;;;;;;;16.70;83.70;;;;;;5095127;28;19916;-30
2023/08/30 11:07:42;;;;;;;;;;;16.70;83.70;;;;;;5095684;28;19923;-28
2023/08/30 11:10:08;;;;;;;;;;;16.70;83.90;;;;;;5095388;28;19965;-27
2023/08/30 11:12:34;;;;;;;;;;;16.80;84.10;;;;;;5095276;28;19916;-27
2023/08/30 11:15:00;;;;;;;;;;;16.90;84.20;;;;;;5095391;28;20272;-28
2023/08/30 11:17:26;;;;;;;;;;;17.00;84.00;;;;;;5095396;28;19920;-27
2023/08/30 11:19:56;;;;;;;;;;;17.10;83.50;;;;;;5095215;28;19912;-27
2023/08/30 11:22:22;;;;;;;;;;;17.20;83.40;;;;;;5095119;28;20295;-27
2023/08/30 11:24:49;;;;;;;;;;;17.20;83.70;;;;;;5094920;28;19912;-27
2023/08/30 11:27:16;;;;;;;;;;;17.30;83.90;;;;;;5094975;28;19912;-27
2023/08/30 11:29:42;;;;;;;;;;;17.30;83.90;;;;;;5095127;28;19919;-28
2023/08/30 11:32:07;;;;;;;;;;;17.40;84.00;;;;;;5095198;28;19972;-27
2023/08/30 11:34:33;;;;;;;;;;;17.50;83.80;;;;;;5094601;28;19920;-30
2023/08/30 11:36:59;;;;;;;;;;;17.60;84.00;;;;;;5094982;28;19961;-27
2023/08/30 11:39:27;;;;;;;;;;;17.60;83.70;;;;;;5094760;28;20090;-29
2023/08/30 11:41:53;;;;;;;;;;;17.60;83.60;;;;;;5094914;28;19961;-26
2023/08/30 11:44:19;;;;;;;;;;;17.70;83.70;;;;;;5094684;28;20352;-30
2023/08/30 11:46:44;;;;;;;;;;;17.70;83.60;;;;;;5094560;28;19981;-27
2023/08/30 11:49:10;;;;;;;;;;;17.80;83.40;;;;;;5094673;28;20398;-27
2023/08/30 11:51:36;;;;;;;;;;;18.00;83.10;;;;;;5093211;28;19912;-35
2023/08/30 11:54:03;;;;;;;;;;;18.10;82.70;;;;;;5094347;28;19927;-27
2023/08/30 11:56:29;;;;;;;;;;;18.20;82.40;;;;;;5093137;28;19919;-27
2023/08/30 11:58:54;;;;;;;;;;;18.40;82.10;;;;;;5094415;28;19912;-27
2023/08/30 12:01:20;;;;;;;;;;;18.40;81.80;;;;;;5094346;28;19947;-31
2023/08/30 12:03:50;;;;;;;;;;;18.40;81.80;;;;;;5094272;28;20441;-28
2023/08/30 12:06:16;;;;;;;;;;;18.40;81.80;;;;;;5094078;28;19995;-27
2023/08/30 12:08:42;;;;;;;;;;;18.40;81.60;;;;;;5094196;28;19939;-27
2023/08/30 12:11:17;;;;;;;;;;;18.60;81.50;;;;;;5094141;28;20310;-28
2023/08/30 12:13:42;;;;;;;;;;;18.70;81.00;;;;;;5094062;28;19959;-31
2023/08/30 12:16:08;;;;;;;;;;;18.90;80.20;;;;;;5093994;28;19944;-27
2023/08/30 12:18:33;;;;;;;;;;;18.90;79.00;;;;;;5092689;28;19918;-27
2023/08/30 12:21:03;;;;;;;;;;;18.90;79.20;;;;;;5093796;28;20321;-27
2023/08/30 12:23:29;;;;;;;;;;;18.80;78.40;;;;;;5094125;28;20292;-28
2023/08/30 12:26:03;;;;;;;;;;;18.70;75.90;;;;;;5094381;28;20390;-27
2023/08/30 12:28:30;;;;;;;;;;;18.60;76.90;;;;;;5093867;28;19930;-28
2023/08/30 12:30:56;;;;;;;;;;;18.50;76.80;;;;;;5093636;28;19994;-26
2023/08/30 12:33:21;;;;;;;;;;;18.50;76.80;;;;;;5094039;28;19950;-26
2023/08/30 12:35:47;;;;;;;;;;;18.30;75.80;;;;;;5093517;28;20220;-28
2023/08/30 12:38:17;;;;;;;;;;;18.40;76.30;;;;;;5093533;28;19908;-31
2023/08/30 12:40:46;;;;;;;;;;;18.50;76.20;;;;;;5093421;28;20314;-27
2023/08/30 12:43:12;;;;;;;;;;;18.50;76.00;;;;;;5093339;28;19908;-28
2023/08/30 12:45:38;;;;;;;;;;;18.50;76.00;;;;;;5093563;28;20341;-27
2023/08/30 12:48:04;;;;;;;;;;;18.60;76.10;;;;;;5093542;28;19908;-29
2023/08/30 12:50:29;;;;;;;;;;;18.60;75.40;;;;;;5093410;28;20356;-27
2023/08/30 12:52:55;;;;;;;;;;;18.60;75.50;;;;;;5093165;28;20587;-27
2023/08/30 12:55:20;;;;;;;;;;;18.60;75.60;;;;;;5092922;28;20397;-30
2023/08/30 12:57:46;;;;;;;;;;;18.60;76.20;;;;;;5093043;28;19908;-27
2023/08/30 13:00:12;;;;;;;;;;;18.70;75.40;;;;;;5092889;28;19912;-28
2023/08/30 13:02:38;;;;;;;;;;;18.80;75.00;;;;;;5093118;28;19908;-28
2023/08/30 13:05:03;;;;;;;;;;;18.80;74.70;;;;;;5092790;28;19911;-35
2023/08/30 13:07:29;;;;;;;;;;;18.90;74.70;;;;;;5092767;28;20287;-29
2023/08/30 13:09:54;;;;;;;;;;;19.00;74.50;;;;;;5093209;28;20335;-29
2023/08/30 13:12:19;;;;;;;;;;;19.00;74.30;;;;;;5093373;28;19908;-35
2023/08/30 13:14:45;;;;;;;;;;;19.10;74.10;;;;;;5093501;28;19959;-41
2023/08/30 13:17:10;;;;;;;;;;;19.10;74.10;;;;;;5093551;28;19908;-33
2023/08/30 13:19:36;;;;;;;;;;;19.20;73.60;;;;;;5093346;28;20287;-34
2023/08/30 13:22:02;;;;;;;;;;;19.20;73.00;;;;;;5093308;28;19919;-34
2023/08/30 13:24:27;;;;;;;;;;;19.40;73.30;;;;;;5093414;28;19915;-33
2023/08/30 13:26:53;;;;;;;;;;;19.50;73.10;;;;;;5091857;28;20275;-33
2023/08/30 13:29:18;;;;;;;;;;;19.80;73.10;;;;;;5093036;28;19995;-33
2023/08/30 13:31:44;;;;;;;;;;;20.00;72.80;;;;;;5092909;28;20435;-33
2023/08/30 13:34:09;;;;;;;;;;;20.20;72.60;;;;;;5092800;28;20280;-32
2023/08/30 13:36:36;;;;;;;;;;;20.40;71.60;;;;;;5092899;28;19915;-32
2023/08/30 13:39:02;;;;;;;;;;;20.50;71.10;;;;;;5093211;28;19908;-37
2023/08/30 13:41:28;;;;;;;;;;;20.50;71.30;;;;;;5093015;28;20275;-33
2023/08/30 13:43:53;;;;;;;;;;;20.60;70.60;;;;;;5093249;28;20373;-31
2023/08/30 13:46:18;;;;;;;;;;;20.70;70.50;;;;;;5093044;28;19973;-33
2023/08/30 13:48:45;;;;;;;;;;;20.70;70.20;;;;;;5092530;28;19919;-34
2023/08/30 13:51:11;;;;;;;;;;;20.60;70.20;;;;;;5092145;28;19909;-34
2023/08/30 13:53:36;;;;;;;;;;;20.70;70.60;;;;;;5092222;28;19920;-34
2023/08/30 13:56:02;;;;;;;;;;;20.80;70.30;;;;;;5092261;28;19918;-36
2023/08/30 13:58:27;;;;;;;;;;;20.80;68.30;;;;;;5090765;28;19908;-33
2023/08/30 14:00:53;;;;;;;;;;;20.80;69.00;;;;;;5092223;28;20356;-34
2023/08/30 14:03:19;;;;;;;;;;;20.70;69.30;;;;;;5092330;28;19935;-41
2023/08/30 14:05:44;;;;;;;;;;;20.80;69.70;;;;;;5092082;28;19925;-36
2023/08/30 14:08:09;;;;;;;;;;;21.00;69.80;;;;;;5092127;28;19908;-33
2023/08/30 14:10:35;;;;;;;;;;;21.10;69.20;;;;;;5092394;28;19915;-44